createdAt,value
2022-12-21T00:00:38.719Z,3.60
2022-12-21T00:05:40.957Z,3.70
2022-12-21T00:10:43.255Z,3.70
2022-12-21T00:15:45.972Z,3.80
2022-12-21T00:20:58.468Z,3.70
2022-12-21T00:26:02.614Z,3.70
2022-12-21T00:31:11.310Z,3.70
2022-12-21T00:36:15.991Z,3.70
2022-12-21T00:41:21.387Z,3.70
2022-12-21T00:46:28.312Z,3.70
2022-12-21T00:51:32.350Z,3.70
2022-12-21T00:56:34.579Z,3.70
2022-12-21T01:01:37.168Z,3.80
2022-12-21T01:06:39.529Z,3.70
2022-12-21T01:11:41.784Z,3.70
2022-12-21T01:16:44.196Z,3.70
2022-12-21T01:21:46.434Z,3.70
2022-12-21T01:26:48.863Z,3.70
2022-12-21T01:31:51.131Z,3.70
2022-12-21T01:36:53.467Z,3.60
2022-12-21T01:41:55.798Z,3.50
2022-12-21T01:46:58.204Z,3.40
2022-12-21T01:52:06.752Z,3.40
2022-12-21T01:57:11.891Z,3.40
2022-12-21T02:02:19.529Z,3.40
2022-12-21T02:07:23.566Z,3.40
2022-12-21T02:12:27.039Z,3.50
2022-12-21T02:23:21.635Z,3.50
2022-12-21T02:28:52.987Z,3.60
2022-12-21T02:34:13.632Z,3.70
2022-12-21T02:55:14.406Z,3.80
2022-12-21T03:00:20.513Z,3.80
2022-12-21T03:11:00.100Z,3.90
2022-12-21T03:21:23.605Z,3.90
2022-12-21T03:31:45.200Z,3.90
2022-12-21T03:36:54.173Z,3.90
2022-12-21T03:47:13.305Z,3.80
2022-12-21T03:52:19.638Z,3.80
2022-12-21T03:57:23.050Z,3.80
2022-12-21T04:07:39.861Z,3.90
2022-12-21T04:12:42.355Z,3.90
2022-12-21T04:17:46.907Z,3.90
2022-12-21T04:23:09.510Z,3.90
2022-12-21T04:33:31.881Z,3.80
2022-12-21T04:38:37.284Z,3.80
2022-12-21T04:43:41.074Z,3.80
2022-12-21T04:48:44.869Z,3.80
2022-12-21T04:53:48.327Z,3.80
2022-12-21T04:58:50.613Z,3.80
2022-12-21T05:03:57.164Z,3.90
2022-12-21T05:08:59.489Z,3.90
2022-12-21T05:14:01.747Z,4.00
2022-12-21T05:19:04.011Z,4.00
2022-12-21T05:24:06.757Z,4.00
2022-12-21T05:29:10.901Z,4.10
2022-12-21T05:34:13.128Z,4.00
2022-12-21T05:39:15.351Z,4.00
2022-12-21T05:44:17.942Z,4.10
2022-12-21T05:49:20.258Z,4.10
2022-12-21T05:54:22.663Z,4.10
2022-12-21T05:59:24.950Z,4.20
2022-12-21T06:04:27.404Z,4.10
2022-12-21T06:09:29.746Z,4.20
2022-12-21T06:14:32.027Z,4.30
2022-12-21T06:19:34.468Z,4.40
2022-12-21T06:24:36.920Z,4.50
2022-12-21T06:29:39.224Z,4.50
2022-12-21T06:34:41.475Z,4.50
2022-12-21T06:39:43.889Z,4.50
2022-12-21T06:44:46.160Z,4.50
2022-12-21T06:49:53.452Z,4.60
2022-12-21T06:54:56.568Z,4.70
2022-12-21T06:59:59.187Z,4.80
2022-12-21T07:05:01.646Z,5.00
2022-12-21T07:10:04.283Z,5.00
2022-12-21T07:15:07.135Z,5.10
2022-12-21T07:20:09.719Z,5.20
2022-12-21T07:25:11.980Z,5.30
2022-12-21T07:30:14.949Z,5.40
2022-12-21T07:35:18.254Z,5.60
2022-12-21T07:45:41.088Z,6.00
2022-12-21T07:50:50.059Z,7.00
2022-12-21T07:55:53.022Z,9.70
2022-12-21T08:00:56.521Z,11.90
2022-12-21T08:06:01.113Z,13.90
2022-12-21T08:11:03.609Z,15.00
2022-12-21T08:16:07.462Z,16.30
2022-12-21T08:21:10.235Z,17.40
2022-12-21T08:26:14.108Z,17.90
2022-12-21T08:31:18.842Z,18.00
2022-12-21T08:36:24.498Z,18.00
2022-12-21T08:41:26.937Z,18.10
2022-12-21T08:46:29.308Z,19.10
2022-12-21T08:51:31.980Z,19.50
2022-12-21T08:56:35.529Z,19.30
2022-12-21T09:01:37.989Z,19.60
2022-12-21T09:06:40.566Z,17.90
2022-12-21T09:11:52.104Z,15.80
2022-12-21T09:16:57.545Z,14.10
2022-12-21T09:21:59.894Z,12.90
2022-12-21T09:27:02.172Z,12.50
2022-12-21T09:32:04.546Z,11.80
2022-12-21T09:37:24.107Z,11.40
2022-12-21T09:43:02.632Z,10.90
2022-12-21T09:48:10.941Z,10.40
2022-12-21T09:53:27.158Z,10.20
2022-12-21T09:58:41.583Z,9.80
2022-12-21T10:20:01.316Z,9.20
2022-12-21T10:25:12.971Z,8.70
2022-12-21T10:30:17.865Z,8.50
2022-12-21T10:40:33.439Z,8.20
2022-12-21T10:45:35.766Z,8.00
2022-12-21T10:50:44.687Z,7.80
2022-12-21T10:55:47.394Z,7.70
2022-12-21T11:00:58.008Z,7.80
2022-12-21T11:06:14.405Z,7.70
2022-12-21T11:11:37.598Z,7.70
2022-12-21T11:16:40.261Z,7.50
2022-12-21T11:32:16.690Z,7.60
2022-12-21T11:42:56.816Z,7.50
2022-12-21T11:48:41.799Z,7.60
2022-12-21T11:54:26.910Z,7.80
2022-12-21T12:20:56.101Z,7.80
2022-12-21T12:42:14.641Z,7.50
2022-12-21T13:03:26.174Z,7.90
2022-12-21T13:14:24.308Z,7.70
2022-12-21T13:19:31.875Z,7.80
2022-12-21T13:45:50.600Z,7.30
2022-12-21T13:51:12.585Z,7.20
2022-12-21T13:56:27.122Z,7.00
2022-12-21T14:07:07.035Z,7.00
2022-12-21T14:17:32.780Z,6.90
2022-12-21T14:33:18.084Z,6.60
2022-12-21T14:43:29.917Z,6.60
2022-12-21T14:54:07.210Z,6.70
2022-12-21T14:59:14.240Z,6.60
2022-12-21T15:04:23.951Z,6.60
2022-12-21T15:09:31.009Z,6.50
2022-12-21T15:14:44.244Z,6.40
2022-12-21T15:25:04.811Z,6.30
2022-12-21T15:35:39.211Z,6.60
2022-12-21T15:40:46.555Z,6.90
2022-12-21T15:51:16.831Z,6.90
2022-12-21T15:56:21.723Z,7.00
2022-12-21T16:01:28.745Z,7.20
2022-12-21T16:06:31.166Z,7.20
2022-12-21T16:17:03.275Z,7.20
2022-12-21T16:22:12.631Z,7.30
2022-12-21T16:27:18.784Z,7.30
2022-12-21T16:32:22.592Z,7.20
2022-12-21T16:37:27.544Z,7.30
2022-12-21T16:42:33.327Z,7.20
2022-12-21T16:47:35.619Z,7.20
2022-12-21T16:52:42.163Z,7.20
2022-12-21T16:57:46.547Z,7.20
2022-12-21T17:02:53.815Z,7.20
2022-12-21T17:07:59.379Z,7.20
2022-12-21T17:29:09.650Z,7.00
2022-12-21T17:34:20.835Z,7.10
2022-12-21T17:39:23.987Z,7.00
2022-12-21T17:44:41.888Z,7.00
2022-12-21T17:49:45.421Z,7.00
2022-12-21T17:54:47.779Z,7.00
2022-12-21T17:59:50.173Z,6.90
2022-12-21T18:04:56.161Z,6.90
2022-12-21T18:09:58.430Z,6.80
2022-12-21T18:15:00.618Z,6.80
2022-12-21T18:20:02.936Z,6.80
2022-12-21T18:25:10.969Z,6.70
2022-12-21T18:30:17.158Z,6.70
2022-12-21T18:35:22.838Z,6.70
2022-12-21T18:40:25.410Z,6.60
2022-12-21T18:45:27.749Z,6.60
2022-12-21T18:50:30.072Z,6.50
2022-12-21T18:55:32.304Z,6.50
2022-12-21T19:00:34.650Z,6.50
2022-12-21T19:05:36.862Z,6.50
2022-12-21T19:10:41.607Z,6.50
2022-12-21T19:15:43.836Z,6.40
2022-12-21T19:20:46.718Z,6.50
2022-12-21T19:25:54.938Z,6.50
2022-12-21T19:30:59.199Z,6.50
2022-12-21T19:36:01.502Z,6.50
2022-12-21T19:41:03.845Z,6.50
2022-12-21T19:46:06.861Z,6.60
2022-12-21T19:51:12.062Z,6.60
2022-12-21T19:56:19.732Z,6.60
2022-12-21T20:01:30.075Z,6.60
2022-12-21T20:06:32.697Z,6.60
2022-12-21T20:11:35.188Z,6.70
2022-12-21T20:16:38.667Z,6.60
2022-12-21T20:21:40.973Z,6.70
2022-12-21T20:26:44.243Z,6.70
2022-12-21T20:31:53.060Z,6.70
2022-12-21T20:36:55.388Z,6.70
2022-12-21T20:42:19.772Z,6.70
2022-12-21T20:47:27.140Z,6.70
2022-12-21T20:52:30.386Z,6.70
2022-12-21T20:57:32.740Z,6.70
2022-12-21T21:02:45.595Z,6.70
2022-12-21T21:07:49.072Z,6.80
2022-12-21T21:12:51.509Z,6.80
2022-12-21T21:17:55.947Z,6.90
2022-12-21T21:23:05.582Z,6.90
2022-12-21T21:28:25.661Z,6.90
2022-12-21T21:33:28.594Z,6.80
2022-12-21T21:38:58.207Z,6.80
2022-12-21T21:44:03.895Z,6.80
2022-12-21T21:49:24.772Z,6.70
2022-12-21T21:54:27.044Z,6.60
2022-12-21T22:11:54.105Z,6.60
2022-12-21T22:17:14.038Z,6.50
2022-12-21T22:22:40.161Z,6.50
2022-12-21T22:28:02.326Z,6.50
2022-12-21T22:33:04.709Z,6.50
2022-12-21T22:38:29.572Z,6.50
2022-12-21T22:43:32.518Z,6.60
2022-12-21T22:48:34.868Z,6.60
2022-12-21T22:53:41.781Z,6.60
2022-12-21T22:58:50.161Z,6.60
2022-12-21T23:03:52.672Z,6.60
2022-12-21T23:08:55.546Z,6.70
2022-12-21T23:14:22.251Z,6.60
2022-12-21T23:19:24.469Z,6.50
2022-12-21T23:24:48.674Z,6.60
2022-12-21T23:29:52.979Z,6.60
2022-12-21T23:35:15.118Z,6.60
2022-12-21T23:45:31.806Z,6.60
2022-12-21T23:50:55.084Z,6.50
2022-12-21T23:56:19.074Z,6.50
